sensor_id;sensor_type;location;lat;lon;timestamp;pressure;altitude;pressure_sealevel;temperature;humidity
17649;BME280;8943;51.110;-4.158;2023-04-05T00:01:54;101955.09;;;13.79;46.01
17649;BME280;8943;51.110;-4.158;2023-04-05T00:04:24;101956.94;;;13.78;45.95
17649;BME280;8943;51.110;-4.158;2023-04-05T00:06:56;101948.91;;;13.78;46.30
17649;BME280;8943;51.110;-4.158;2023-04-05T00:09:25;101945.13;;;13.81;46.09
17649;BME280;8943;51.110;-4.158;2023-04-05T00:11:54;101942.44;;;13.81;46.22
17649;BME280;8943;51.110;-4.158;2023-04-05T00:14:23;101941.53;;;13.82;45.88
17649;BME280;8943;51.110;-4.158;2023-04-05T00:16:52;101946.03;;;13.81;46.03
17649;BME280;8943;51.110;-4.158;2023-04-05T00:19:21;101943.34;;;13.81;46.24
17649;BME280;8943;51.110;-4.158;2023-04-05T00:21:49;101941.59;;;13.80;46.21
17649;BME280;8943;51.110;-4.158;2023-04-05T00:24:22;101931.97;;;13.78;46.20
17649;BME280;8943;51.110;-4.158;2023-04-05T00:26:50;101931.19;;;13.76;45.75
17649;BME280;8943;51.110;-4.158;2023-04-05T00:29:19;101928.75;;;13.73;46.20
17649;BME280;8943;51.110;-4.158;2023-04-05T00:31:49;101910.00;;;13.73;46.41
17649;BME280;8943;51.110;-4.158;2023-04-05T00:34:36;101910.72;;;13.75;46.14
17649;BME280;8943;51.110;-4.158;2023-04-05T00:37:06;101908.91;;;13.75;46.36
17649;BME280;8943;51.110;-4.158;2023-04-05T00:53:55;101889.63;;;13.70;46.49
17649;BME280;8943;51.110;-4.158;2023-04-05T00:56:47;101899.16;;;13.74;46.49
17649;BME280;8943;51.110;-4.158;2023-04-05T00:59:36;101881.19;;;13.76;46.77
17649;BME280;8943;51.110;-4.158;2023-04-05T01:02:43;101887.16;;;13.80;46.28
17649;BME280;8943;51.110;-4.158;2023-04-05T01:05:24;101883.50;;;13.81;46.20
17649;BME280;8943;51.110;-4.158;2023-04-05T01:08:07;101886.13;;;13.82;46.25
17649;BME280;8943;51.110;-4.158;2023-04-05T01:11:08;101886.00;;;13.84;46.39
17649;BME280;8943;51.110;-4.158;2023-04-05T01:14:02;101887.72;;;13.85;46.49
17649;BME280;8943;51.110;-4.158;2023-04-05T01:16:37;101883.13;;;13.87;46.53
17649;BME280;8943;51.110;-4.158;2023-04-05T01:19:12;101873.25;;;13.87;46.15
17649;BME280;8943;51.110;-4.158;2023-04-05T01:43:16;101861.16;;;13.82;46.25
17649;BME280;8943;51.110;-4.158;2023-04-05T01:46:14;101858.56;;;13.80;46.47
17649;BME280;8943;51.110;-4.158;2023-04-05T01:49:12;101856.72;;;13.81;46.25
17649;BME280;8943;51.110;-4.158;2023-04-05T01:52:13;101856.72;;;13.81;46.69
17649;BME280;8943;51.110;-4.158;2023-04-05T01:55:22;101852.34;;;13.80;46.44
17649;BME280;8943;51.110;-4.158;2023-04-05T01:58:33;101853.13;;;13.82;46.72
17649;BME280;8943;51.110;-4.158;2023-04-05T02:01:05;101851.16;;;13.84;46.33
17649;BME280;8943;51.110;-4.158;2023-04-05T02:03:35;101845.69;;;13.85;46.00
17649;BME280;8943;51.110;-4.158;2023-04-05T02:06:26;101842.06;;;13.86;46.55
17649;BME280;8943;51.110;-4.158;2023-04-05T02:08:59;101835.75;;;13.87;46.38
17649;BME280;8943;51.110;-4.158;2023-04-05T02:11:29;101836.47;;;13.89;46.30
17649;BME280;8943;51.110;-4.158;2023-04-05T02:14:07;101829.31;;;13.90;46.48
17649;BME280;8943;51.110;-4.158;2023-04-05T02:16:37;101829.09;;;13.93;46.59
17649;BME280;8943;51.110;-4.158;2023-04-05T02:19:35;101821.91;;;13.94;46.42
17649;BME280;8943;51.110;-4.158;2023-04-05T02:22:21;101824.47;;;13.95;46.42
17649;BME280;8943;51.110;-4.158;2023-04-05T02:25:25;101816.44;;;13.95;46.34
17649;BME280;8943;51.110;-4.158;2023-04-05T02:28:37;101820.09;;;13.94;46.45
17649;BME280;8943;51.110;-4.158;2023-04-05T02:31:35;101815.59;;;13.95;46.70
17649;BME280;8943;51.110;-4.158;2023-04-05T02:34:27;101804.88;;;13.95;46.41
17649;BME280;8943;51.110;-4.158;2023-04-05T02:37:27;101806.69;;;13.94;46.57
17649;BME280;8943;51.110;-4.158;2023-04-05T02:41:07;101803.03;;;13.95;46.38
17649;BME280;8943;51.110;-4.158;2023-04-05T02:44:15;101801.34;;;13.94;46.48
17649;BME280;8943;51.110;-4.158;2023-04-05T03:15:54;101798.00;;;13.90;46.63
17649;BME280;8943;51.110;-4.158;2023-04-05T03:18:24;101788.25;;;13.89;46.75
17649;BME280;8943;51.110;-4.158;2023-04-05T03:20:57;101785.59;;;13.89;46.70
17649;BME280;8943;51.110;-4.158;2023-04-05T03:23:31;101784.72;;;13.89;46.73
17649;BME280;8943;51.110;-4.158;2023-04-05T03:26:15;101776.94;;;13.86;46.83
17649;BME280;8943;51.110;-4.158;2023-04-05T03:29:07;101777.00;;;13.84;46.73
17649;BME280;8943;51.110;-4.158;2023-04-05T03:35:29;101769.53;;;13.77;47.08
17649;BME280;8943;51.110;-4.158;2023-04-05T03:38:13;101772.22;;;13.77;47.03
17649;BME280;8943;51.110;-4.158;2023-04-05T03:40:49;101763.41;;;13.75;47.04
17649;BME280;8943;51.110;-4.158;2023-04-05T03:43:26;101763.41;;;13.75;47.26
17649;BME280;8943;51.110;-4.158;2023-04-05T03:45:56;101755.50;;;13.73;46.96
17649;BME280;8943;51.110;-4.158;2023-04-05T03:48:43;101762.66;;;13.73;47.38
17649;BME280;8943;51.110;-4.158;2023-04-05T03:51:31;101750.44;;;13.69;47.32
17649;BME280;8943;51.110;-4.158;2023-04-05T03:54:15;101746.81;;;13.70;47.43
17649;BME280;8943;51.110;-4.158;2023-04-05T03:57:16;101746.16;;;13.66;47.64
17649;BME280;8943;51.110;-4.158;2023-04-05T04:00:11;101741.56;;;13.68;47.69
17649;BME280;8943;51.110;-4.158;2023-04-05T04:03:05;101740.72;;;13.68;47.33
17649;BME280;8943;51.110;-4.158;2023-04-05T04:05:37;101742.53;;;13.67;47.40
17649;BME280;8943;51.110;-4.158;2023-04-05T04:08:24;101742.53;;;13.67;47.86
17649;BME280;8943;51.110;-4.158;2023-04-05T04:10:56;101732.88;;;13.64;47.86
17649;BME280;8943;51.110;-4.158;2023-04-05T04:13:26;101736.31;;;13.67;47.77
17649;BME280;8943;51.110;-4.158;2023-04-05T04:15:57;101733.66;;;13.67;47.91
17649;BME280;8943;51.110;-4.158;2023-04-05T04:18:25;101737.25;;;13.65;48.46
17649;BME280;8943;51.110;-4.158;2023-04-05T04:20:54;101730.97;;;13.67;48.10
17649;BME280;8943;51.110;-4.158;2023-04-05T04:23:25;101730.31;;;13.63;48.32
17649;BME280;8943;51.110;-4.158;2023-04-05T04:25:55;101733.09;;;13.61;48.31
17649;BME280;8943;51.110;-4.158;2023-04-05T04:28:24;101734.81;;;13.62;48.37
17649;BME280;8943;51.110;-4.158;2023-04-05T04:30:53;101727.72;;;13.61;48.45
17649;BME280;8943;51.110;-4.158;2023-04-05T04:33:22;101732.22;;;13.61;48.37
17649;BME280;8943;51.110;-4.158;2023-04-05T04:35:52;101730.41;;;13.61;48.53
17649;BME280;8943;51.110;-4.158;2023-04-05T04:38:21;101732.22;;;13.61;48.90
17649;BME280;8943;51.110;-4.158;2023-04-05T04:40:54;101726.25;;;13.57;48.64
17649;BME280;8943;51.110;-4.158;2023-04-05T04:43:24;101725.28;;;13.58;48.83
17649;BME280;8943;51.110;-4.158;2023-04-05T04:45:54;101718.22;;;13.57;48.70
17649;BME280;8943;51.110;-4.158;2023-04-05T04:48:24;101717.25;;;13.58;48.83
17649;BME280;8943;51.110;-4.158;2023-04-05T04:50:52;101717.00;;;13.61;48.98
17649;BME280;8943;51.110;-4.158;2023-04-05T04:53:35;101711.91;;;13.58;48.95
17649;BME280;8943;51.110;-4.158;2023-04-05T04:56:07;101713.59;;;13.59;48.99
17649;BME280;8943;51.110;-4.158;2023-04-05T04:58:37;101717.78;;;13.63;48.97
17649;BME280;8943;51.110;-4.158;2023-04-05T05:01:08;101716.81;;;13.64;49.30
17649;BME280;8943;51.110;-4.158;2023-04-05T05:03:37;101710.47;;;13.65;49.14
17649;BME280;8943;51.110;-4.158;2023-04-05T05:06:06;101714.91;;;13.67;49.34
17649;BME280;8943;51.110;-4.158;2023-04-05T05:08:35;101711.25;;;13.68;49.28
17649;BME280;8943;51.110;-4.158;2023-04-05T05:11:06;101708.78;;;13.64;49.55
17649;BME280;8943;51.110;-4.158;2023-04-05T05:13:35;101705.13;;;13.65;49.54
17649;BME280;8943;51.110;-4.158;2023-04-05T05:16:03;101705.03;;;13.67;49.63
17649;BME280;8943;51.110;-4.158;2023-04-05T05:18:32;101692.59;;;13.66;49.56
17649;BME280;8943;51.110;-4.158;2023-04-05T05:21:01;101693.47;;;13.67;49.69
17649;BME280;8943;51.110;-4.158;2023-04-05T05:23:29;101699.69;;;13.67;49.68
17649;BME280;8943;51.110;-4.158;2023-04-05T05:25:57;101693.47;;;13.67;49.72
17649;BME280;8943;51.110;-4.158;2023-04-05T05:28:27;101697.22;;;13.64;49.83
17649;BME280;8943;51.110;-4.158;2023-04-05T05:30:56;101694.41;;;13.65;49.93
17649;BME280;8943;51.110;-4.158;2023-04-05T05:33:24;101697.00;;;13.67;49.97
17649;BME280;8943;51.110;-4.158;2023-04-05T05:35:52;101694.41;;;13.65;50.09
17649;BME280;8943;51.110;-4.158;2023-04-05T05:38:22;101698.84;;;13.67;50.01
17649;BME280;8943;51.110;-4.158;2023-04-05T05:40:54;101691.72;;;13.65;49.94
17649;BME280;8943;51.110;-4.158;2023-04-05T05:43:22;101693.47;;;13.67;50.37
17649;BME280;8943;51.110;-4.158;2023-04-05T05:45:52;101688.31;;;13.63;50.33
17649;BME280;8943;51.110;-4.158;2023-04-05T05:48:20;101693.47;;;13.67;50.08
17649;BME280;8943;51.110;-4.158;2023-04-05T05:50:48;101692.72;;;13.64;50.11
17649;BME280;8943;51.110;-4.158;2023-04-05T05:53:16;101684.66;;;13.64;50.09
17649;BME280;8943;51.110;-4.158;2023-04-05T05:55:44;101690.88;;;13.65;50.33
17649;BME280;8943;51.110;-4.158;2023-04-05T05:58:12;101691.72;;;13.65;50.43
17649;BME280;8943;51.110;-4.158;2023-04-05T06:00:41;101692.38;;;13.69;50.67
17649;BME280;8943;51.110;-4.158;2023-04-05T06:03:11;101686.06;;;13.70;50.87
17649;BME280;8943;51.110;-4.158;2023-04-05T06:05:39;101692.19;;;13.72;50.56
17649;BME280;8943;51.110;-4.158;2023-04-05T06:08:09;101682.19;;;13.74;50.68
17649;BME280;8943;51.110;-4.158;2023-04-05T06:10:37;101684.66;;;13.77;50.63
17649;BME280;8943;51.110;-4.158;2023-04-05T06:13:05;101684.53;;;13.79;50.67
17649;BME280;8943;51.110;-4.158;2023-04-05T06:15:34;101683.56;;;13.80;50.88
17649;BME280;8943;51.110;-4.158;2023-04-05T06:18:03;101673.72;;;13.80;51.01
17649;BME280;8943;51.110;-4.158;2023-04-05T06:20:32;101680.69;;;13.83;51.09
17649;BME280;8943;51.110;-4.158;2023-04-05T06:23:01;101685.94;;;13.84;50.96
17649;BME280;8943;51.110;-4.158;2023-04-05T06:25:29;101685.72;;;13.87;51.13
17649;BME280;8943;51.110;-4.158;2023-04-05T06:27:57;101684.63;;;13.90;51.08
17649;BME280;8943;51.110;-4.158;2023-04-05T06:30:25;101685.25;;;13.94;50.89
17649;BME280;8943;51.110;-4.158;2023-04-05T06:32:53;101684.19;;;13.96;51.05
17649;BME280;8943;51.110;-4.158;2023-04-05T06:35:23;101681.28;;;13.99;50.99
17649;BME280;8943;51.110;-4.158;2023-04-05T06:37:53;101680.09;;;14.03;51.14
17649;BME280;8943;51.110;-4.158;2023-04-05T06:40:21;101679.88;;;14.06;51.27
17649;BME280;8943;51.110;-4.158;2023-04-05T06:42:49;101676.22;;;14.07;51.08
17649;BME280;8943;51.110;-4.158;2023-04-05T06:45:17;101672.56;;;14.08;51.30
17649;BME280;8943;51.110;-4.158;2023-04-05T06:47:46;101676.88;;;14.11;51.38
17649;BME280;8943;51.110;-4.158;2023-04-05T06:50:14;101677.47;;;14.14;51.38
17649;BME280;8943;51.110;-4.158;2023-04-05T06:52:42;101674.59;;;14.17;51.26
17649;BME280;8943;51.110;-4.158;2023-04-05T06:55:12;101677.25;;;14.17;51.47
17649;BME280;8943;51.110;-4.158;2023-04-05T06:58:12;101675.31;;;14.20;51.06
17649;BME280;8943;51.110;-4.158;2023-04-05T07:00:49;101671.91;;;14.17;51.37
17649;BME280;8943;51.110;-4.158;2023-04-05T07:03:21;101664.59;;;14.20;51.34
17649;BME280;8943;51.110;-4.158;2023-04-05T07:05:50;101659.22;;;14.20;51.42
17649;BME280;8943;51.110;-4.158;2023-04-05T07:08:20;101678.50;;;14.25;51.40
17649;BME280;8943;51.110;-4.158;2023-04-05T07:10:52;101689.22;;;14.25;51.32
17649;BME280;8943;51.110;-4.158;2023-04-05T07:13:23;101679.28;;;14.27;51.14
17649;BME280;8943;51.110;-4.158;2023-04-05T07:15:51;101676.34;;;14.30;51.49
17649;BME280;8943;51.110;-4.158;2023-04-05T07:18:26;101674.56;;;14.30;51.50
17649;BME280;8943;51.110;-4.158;2023-04-05T07:20:57;101678.69;;;14.34;51.60
17649;BME280;8943;51.110;-4.158;2023-04-05T07:23:28;101668.84;;;14.35;51.70
17649;BME280;8943;51.110;-4.158;2023-04-05T07:26:00;101664.94;;;14.39;51.91
17649;BME280;8943;51.110;-4.158;2023-04-05T07:28:31;101663.75;;;14.43;51.62
17649;BME280;8943;51.110;-4.158;2023-04-05T07:31:01;101668.91;;;14.46;51.71
17649;BME280;8943;51.110;-4.158;2023-04-05T07:33:30;101661.72;;;14.47;51.62
17649;BME280;8943;51.110;-4.158;2023-04-05T07:35:58;101664.19;;;14.50;51.53
17649;BME280;8943;51.110;-4.158;2023-04-05T07:38:26;101664.06;;;14.51;51.70
17649;BME280;8943;51.110;-4.158;2023-04-05T07:40:55;101661.41;;;14.51;51.78
17649;BME280;8943;51.110;-4.158;2023-04-05T07:43:25;101656.66;;;14.55;51.81
17649;BME280;8943;51.110;-4.158;2023-04-05T07:46:00;101661.91;;;14.56;51.90
17649;BME280;8943;51.110;-4.158;2023-04-05T07:48:28;101658.03;;;14.60;51.71
17649;BME280;8943;51.110;-4.158;2023-04-05T07:51:02;101657.78;;;14.63;51.97
17649;BME280;8943;51.110;-4.158;2023-04-05T07:53:31;101655.94;;;14.64;51.91
17649;BME280;8943;51.110;-4.158;2023-04-05T07:56:02;101657.34;;;14.70;51.78
17649;BME280;8943;51.110;-4.158;2023-04-05T07:58:34;101656.34;;;14.71;51.85
17649;BME280;8943;51.110;-4.158;2023-04-05T08:01:07;101655.38;;;14.72;51.94
17649;BME280;8943;51.110;-4.158;2023-04-05T08:03:36;101655.03;;;14.76;52.03
17649;BME280;8943;51.110;-4.158;2023-04-05T08:06:09;101655.75;;;14.78;52.08
17649;BME280;8943;51.110;-4.158;2023-04-05T08:08:38;101649.31;;;14.81;52.04
17649;BME280;8943;51.110;-4.158;2023-04-05T08:11:07;101655.53;;;14.81;52.23
17649;BME280;8943;51.110;-4.158;2023-04-05T08:13:38;101654.19;;;14.87;51.91
17649;BME280;8943;51.110;-4.158;2023-04-05T08:16:08;101657.00;;;14.85;51.96
17649;BME280;8943;51.110;-4.158;2023-04-05T08:18:41;101647.13;;;14.86;52.09
17649;BME280;8943;51.110;-4.158;2023-04-05T08:21:24;101651.41;;;14.88;51.98
17649;BME280;8943;51.110;-4.158;2023-04-05T08:41:06;101640.22;;;15.17;52.60
17649;BME280;8943;51.110;-4.158;2023-04-05T08:43:55;101639.78;;;15.23;52.43
17649;BME280;8943;51.110;-4.158;2023-04-05T08:46:29;101633.06;;;15.29;52.51
17649;BME280;8943;51.110;-4.158;2023-04-05T08:49:04;101635.97;;;15.37;52.66
17649;BME280;8943;51.110;-4.158;2023-04-05T08:51:49;101644.91;;;15.49;52.56
17649;BME280;8943;51.110;-4.158;2023-04-05T08:54:18;101641.84;;;15.53;52.76
17649;BME280;8943;51.110;-4.158;2023-04-05T08:56:49;101642.84;;;15.63;52.63
17649;BME280;8943;51.110;-4.158;2023-04-05T08:59:21;101643.34;;;15.68;52.58
17649;BME280;8943;51.110;-4.158;2023-04-05T09:01:53;101643.97;;;15.72;52.76
17649;BME280;8943;51.110;-4.158;2023-04-05T09:04:28;101641.28;;;15.72;52.63
17649;BME280;8943;51.110;-4.158;2023-04-05T09:06:58;101646.03;;;15.68;52.83
17649;BME280;8943;51.110;-4.158;2023-04-05T09:09:32;101647.88;;;15.68;52.83
17649;BME280;8943;51.110;-4.158;2023-04-05T09:12:04;101649.94;;;15.64;53.11
17649;BME280;8943;51.110;-4.158;2023-04-05T09:14:35;101643.72;;;15.64;53.26
17649;BME280;8943;51.110;-4.158;2023-04-05T09:17:05;101633.69;;;15.66;52.97
17649;BME280;8943;51.110;-4.158;2023-04-05T09:19:33;101639.66;;;15.69;53.10
17649;BME280;8943;51.110;-4.158;2023-04-05T09:22:03;101648.59;;;15.70;53.14
17649;BME280;8943;51.110;-4.158;2023-04-05T09:24:34;101638.69;;;15.70;53.22
17649;BME280;8943;51.110;-4.158;2023-04-05T09:27:09;101641.38;;;15.70;53.16
17649;BME280;8943;51.110;-4.158;2023-04-05T09:29:39;101637.34;;;15.76;53.18
17649;BME280;8943;51.110;-4.158;2023-04-05T09:32:08;101632.19;;;15.84;53.12
17649;BME280;8943;51.110;-4.158;2023-04-05T09:34:39;101627.91;;;15.93;53.12
17649;BME280;8943;51.110;-4.158;2023-04-05T09:37:13;101636.94;;;16.03;53.00
17649;BME280;8943;51.110;-4.158;2023-04-05T09:39:42;101622.75;;;16.12;53.17
17649;BME280;8943;51.110;-4.158;2023-04-05T09:42:13;101629.06;;;16.22;53.21
17649;BME280;8943;51.110;-4.158;2023-04-05T09:44:53;101626.31;;;16.34;53.45
17649;BME280;8943;51.110;-4.158;2023-04-05T09:47:24;101615.41;;;16.46;53.13
17649;BME280;8943;51.110;-4.158;2023-04-05T09:49:57;101612.66;;;16.58;52.97
17649;BME280;8943;51.110;-4.158;2023-04-05T09:52:27;101622.03;;;16.63;52.96
17649;BME280;8943;51.110;-4.158;2023-04-05T09:54:59;101604.66;;;16.67;52.90
17649;BME280;8943;51.110;-4.158;2023-04-05T09:57:34;101606.13;;;16.71;53.02
17649;BME280;8943;51.110;-4.158;2023-04-05T10:00:04;101607.84;;;16.72;53.02
17649;BME280;8943;51.110;-4.158;2023-04-05T10:02:36;101598.75;;;16.73;53.08
17649;BME280;8943;51.110;-4.158;2023-04-05T10:05:05;101613.09;;;16.74;52.75
17649;BME280;8943;51.110;-4.158;2023-04-05T10:07:34;101603.81;;;16.67;52.66
17649;BME280;8943;51.110;-4.158;2023-04-05T10:10:04;101614.94;;;16.62;52.60
17649;BME280;8943;51.110;-4.158;2023-04-05T10:12:37;101613.78;;;16.55;52.41
17649;BME280;8943;51.110;-4.158;2023-04-05T10:15:07;101606.09;;;16.51;52.63
17649;BME280;8943;51.110;-4.158;2023-04-05T10:17:41;101605.50;;;16.47;52.68
17649;BME280;8943;51.110;-4.158;2023-04-05T10:20:16;101604.03;;;16.43;52.76
17649;BME280;8943;51.110;-4.158;2023-04-05T10:22:58;101599.41;;;16.45;52.69
17649;BME280;8943;51.110;-4.158;2023-04-05T10:25:38;101604.19;;;16.41;52.92
17649;BME280;8943;51.110;-4.158;2023-04-05T10:28:19;101596.50;;;16.37;52.91
17649;BME280;8943;51.110;-4.158;2023-04-05T10:31:02;101595.78;;;16.35;52.83
17649;BME280;8943;51.110;-4.158;2023-04-05T10:33:38;101592.59;;;16.30;52.80
17649;BME280;8943;51.110;-4.158;2023-04-05T10:36:13;101600.19;;;16.25;52.93
17649;BME280;8943;51.110;-4.158;2023-04-05T10:38:52;101593.63;;;16.17;53.08
17649;BME280;8943;51.110;-4.158;2023-04-05T10:41:25;101597.31;;;16.16;53.21
17649;BME280;8943;51.110;-4.158;2023-04-05T10:43:56;101598.16;;;16.17;53.36
17649;BME280;8943;51.110;-4.158;2023-04-05T10:46:25;101587.03;;;16.21;53.67
17649;BME280;8943;51.110;-4.158;2023-04-05T10:48:58;101591.13;;;16.37;53.76
17649;BME280;8943;51.110;-4.158;2023-04-05T10:51:32;101595.34;;;16.51;53.68
17649;BME280;8943;51.110;-4.158;2023-04-05T10:54:01;101580.72;;;16.64;53.58
17649;BME280;8943;51.110;-4.158;2023-04-05T10:56:30;101576.28;;;16.75;53.42
17649;BME280;8943;51.110;-4.158;2023-04-05T10:59:00;101586.25;;;16.84;53.20
17649;BME280;8943;51.110;-4.158;2023-04-05T11:01:29;101582.56;;;16.85;52.68
17649;BME280;8943;51.110;-4.158;2023-04-05T11:04:10;101576.19;;;16.86;52.54
17649;BME280;8943;51.110;-4.158;2023-04-05T11:06:38;101573.25;;;16.89;52.08
17649;BME280;8943;51.110;-4.158;2023-04-05T11:09:11;101569.38;;;16.82;52.24
17649;BME280;8943;51.110;-4.158;2023-04-05T11:11:42;101576.97;;;16.77;51.83
17649;BME280;8943;51.110;-4.158;2023-04-05T11:14:19;101580.06;;;16.72;51.71
17649;BME280;8943;51.110;-4.158;2023-04-05T11:16:49;101583.00;;;16.69;51.61
17649;BME280;8943;51.110;-4.158;2023-04-05T11:19:19;101575.34;;;16.64;51.54
17649;BME280;8943;51.110;-4.158;2023-04-05T11:21:59;101581.50;;;16.55;51.59
17649;BME280;8943;51.110;-4.158;2023-04-05T11:24:51;101586.66;;;16.47;51.81
17649;BME280;8943;51.110;-4.158;2023-04-05T11:27:25;101572.16;;;16.38;51.75
17649;BME280;8943;51.110;-4.158;2023-04-05T11:29:56;101575.22;;;16.34;51.86
17649;BME280;8943;51.110;-4.158;2023-04-05T11:32:37;101567.69;;;16.28;51.96
17649;BME280;8943;51.110;-4.158;2023-04-05T11:35:11;101566.38;;;16.22;52.22
17649;BME280;8943;51.110;-4.158;2023-04-05T11:37:55;101556.84;;;16.18;52.30
17649;BME280;8943;51.110;-4.158;2023-04-05T11:40:33;101558.22;;;16.12;52.48
17649;BME280;8943;51.110;-4.158;2023-04-05T11:43:03;101558.34;;;16.11;52.61
17649;BME280;8943;51.110;-4.158;2023-04-05T11:45:36;101562.13;;;16.08;52.57
17649;BME280;8943;51.110;-4.158;2023-04-05T11:48:05;101564.09;;;16.06;52.62
17649;BME280;8943;51.110;-4.158;2023-04-05T11:50:37;101554.44;;;16.04;52.64
17649;BME280;8943;51.110;-4.158;2023-04-05T11:53:08;101555.06;;;16.07;52.79
17649;BME280;8943;51.110;-4.158;2023-04-05T11:55:39;101560.06;;;16.12;52.86
17649;BME280;8943;51.110;-4.158;2023-04-05T11:58:12;101549.91;;;16.15;52.82
17649;BME280;8943;51.110;-4.158;2023-04-05T12:00:43;101545.38;;;16.16;52.81
17649;BME280;8943;51.110;-4.158;2023-04-05T12:03:12;101550.84;;;16.14;52.93
17649;BME280;8943;51.110;-4.158;2023-04-05T12:05:48;101543.78;;;16.13;52.75
17649;BME280;8943;51.110;-4.158;2023-04-05T12:08:17;101538.41;;;16.13;52.89
17649;BME280;8943;51.110;-4.158;2023-04-05T12:10:53;101545.00;;;16.09;52.83
17649;BME280;8943;51.110;-4.158;2023-04-05T12:13:28;101535.97;;;16.10;53.09
17649;BME280;8943;51.110;-4.158;2023-04-05T12:15:59;101527.66;;;16.13;53.07
17649;BME280;8943;51.110;-4.158;2023-04-05T12:18:30;101522.03;;;16.16;53.24
17649;BME280;8943;51.110;-4.158;2023-04-05T12:20:59;101527.97;;;16.20;53.13
17649;BME280;8943;51.110;-4.158;2023-04-05T12:23:32;101518.28;;;16.29;53.18
17649;BME280;8943;51.110;-4.158;2023-04-05T12:26:01;101515.19;;;16.33;53.07
17649;BME280;8943;51.110;-4.158;2023-04-05T12:28:51;101516.78;;;16.36;53.05
17649;BME280;8943;51.110;-4.158;2023-04-05T12:31:38;101519.72;;;16.33;53.06
17649;BME280;8943;51.110;-4.158;2023-04-05T12:34:07;101510.81;;;16.32;53.33
17649;BME280;8943;51.110;-4.158;2023-04-05T12:36:36;101513.25;;;16.35;53.13
17649;BME280;8943;51.110;-4.158;2023-04-05T12:39:07;101511.13;;;16.39;53.11
17649;BME280;8943;51.110;-4.158;2023-04-05T12:41:37;101517.34;;;16.39;53.16
17649;BME280;8943;51.110;-4.158;2023-04-05T12:44:10;101521.50;;;16.43;53.13
17649;BME280;8943;51.110;-4.158;2023-04-05T12:46:42;101516.25;;;16.42;52.90
17649;BME280;8943;51.110;-4.158;2023-04-05T12:49:11;101523.09;;;16.46;52.81
17649;BME280;8943;51.110;-4.158;2023-04-05T12:51:43;101519.66;;;16.44;52.91
17649;BME280;8943;51.110;-4.158;2023-04-05T12:54:12;101511.47;;;16.45;52.86
17649;BME280;8943;51.110;-4.158;2023-04-05T12:56:42;101519.94;;;16.41;52.82
17649;BME280;8943;51.110;-4.158;2023-04-05T12:59:11;101507.72;;;16.37;52.82
17649;BME280;8943;51.110;-4.158;2023-04-05T13:01:41;101510.41;;;16.37;52.62
17649;BME280;8943;51.110;-4.158;2023-04-05T13:04:11;101507.03;;;16.35;52.82
17649;BME280;8943;51.110;-4.158;2023-04-05T13:06:42;101503.44;;;16.34;52.83
17649;BME280;8943;51.110;-4.158;2023-04-05T13:09:13;101510.81;;;16.32;52.90
17649;BME280;8943;51.110;-4.158;2023-04-05T13:11:41;101503.00;;;16.29;53.12
17649;BME280;8943;51.110;-4.158;2023-04-05T13:14:10;101504.84;;;16.29;53.10
17649;BME280;8943;51.110;-4.158;2023-04-05T13:16:38;101495.78;;;16.30;53.32
17649;BME280;8943;51.110;-4.158;2023-04-05T13:19:08;101494.94;;;16.29;53.15
17649;BME280;8943;51.110;-4.158;2023-04-05T13:21:36;101484.16;;;16.29;53.34
17649;BME280;8943;51.110;-4.158;2023-04-05T13:24:05;101500.66;;;16.36;53.23
17649;BME280;8943;51.110;-4.158;2023-04-05T13:26:35;101494.16;;;16.38;53.17
17649;BME280;8943;51.110;-4.158;2023-04-05T13:29:03;101491.34;;;16.40;53.29
17649;BME280;8943;51.110;-4.158;2023-04-05T13:31:32;101493.28;;;16.38;53.47
17649;BME280;8943;51.110;-4.158;2023-04-05T13:34:01;101488.31;;;16.33;53.20
17649;BME280;8943;51.110;-4.158;2023-04-05T13:36:31;101490.16;;;16.33;53.43
17649;BME280;8943;51.110;-4.158;2023-04-05T13:38:59;101486.75;;;16.31;53.57
17649;BME280;8943;51.110;-4.158;2023-04-05T13:41:28;101488.69;;;16.29;53.68
17649;BME280;8943;51.110;-4.158;2023-04-05T13:43:56;101477.09;;;16.28;53.79
17649;BME280;8943;51.110;-4.158;2023-04-05T13:46:28;101477.53;;;16.33;53.57
17649;BME280;8943;51.110;-4.158;2023-04-05T13:48:59;101474.75;;;16.35;53.81
17649;BME280;8943;51.110;-4.158;2023-04-05T13:51:28;101462.16;;;16.35;54.02
17649;BME280;8943;51.110;-4.158;2023-04-05T13:54:01;101462.72;;;16.39;53.97
17649;BME280;8943;51.110;-4.158;2023-04-05T13:56:31;101466.47;;;16.47;53.98
17649;BME280;8943;51.110;-4.158;2023-04-05T13:59:00;101456.59;;;16.58;54.11
17649;BME280;8943;51.110;-4.158;2023-04-05T14:01:43;101459.75;;;16.63;54.06
17649;BME280;8943;51.110;-4.158;2023-04-05T14:04:11;101452.75;;;16.71;54.10
17649;BME280;8943;51.110;-4.158;2023-04-05T14:06:39;101454.19;;;16.76;53.86
17649;BME280;8943;51.110;-4.158;2023-04-05T14:09:09;101453.88;;;16.79;54.07
17649;BME280;8943;51.110;-4.158;2023-04-05T14:11:38;101454.78;;;16.79;53.96
17649;BME280;8943;51.110;-4.158;2023-04-05T14:14:07;101444.84;;;16.80;53.87
17649;BME280;8943;51.110;-4.158;2023-04-05T14:16:35;101432.09;;;16.82;54.31
17649;BME280;8943;51.110;-4.158;2023-04-05T14:19:10;101436.22;;;16.86;54.42
17649;BME280;8943;51.110;-4.158;2023-04-05T14:21:43;101431.00;;;16.84;54.27
17649;BME280;8943;51.110;-4.158;2023-04-05T14:30:24;101421.28;;;16.72;54.32
17649;BME280;8943;51.110;-4.158;2023-04-05T14:32:57;101411.63;;;16.69;54.48
17649;BME280;8943;51.110;-4.158;2023-04-05T14:35:26;101409.47;;;16.63;54.87
17649;BME280;8943;51.110;-4.158;2023-04-05T15:20:59;101353.41;;;16.68;55.57
17649;BME280;8943;51.110;-4.158;2023-04-05T15:59:34;101325.94;;;16.34;55.92
17649;BME280;8943;51.110;-4.158;2023-04-05T16:09:10;101325.00;;;16.35;56.12
17649;BME280;8943;51.110;-4.158;2023-04-05T19:45:54;101229.50;;;15.59;60.31
17649;BME280;8943;51.110;-4.158;2023-04-05T19:49:08;101231.94;;;15.62;60.24
17649;BME280;8943;51.110;-4.158;2023-04-05T23:34:20;101128.59;;;15.35;62.08
17649;BME280;8943;51.110;-4.158;2023-04-05T23:43:38;101131.31;;;15.14;62.19
